Time;durP1;ratioP1;P1;durP2;ratioP2;P2;SDS_P1;SDS_P2;PMS_P1;PMS_P2;Temp;Humidity;BMP_temperature;BMP_pressure;BME280_temperature;BME280_humidity;BME280_pressure;Samples;Min_cycle;Max_cycle;Signal;HPM_P1;HPM_P2
2023/07/26 00:00:07;;;;;;;1.15;0.25;;;21.90;99.90;;;;;;4984775;28;20519;-75
2023/07/26 00:02:33;;;;;;;2.28;0.30;;;21.90;99.90;;;;;;4979370;28;20499;-76
2023/07/26 00:04:59;;;;;;;0.22;0.22;;;21.90;99.90;;;;;;4983222;28;20026;-75
2023/07/26 00:07:24;;;;;;;0.30;0.30;;;21.80;99.90;;;;;;4981082;28;20388;-75
2023/07/26 00:09:50;;;;;;;0.38;0.20;;;21.80;99.90;;;;;;4982873;28;20019;-75
2023/07/26 00:12:16;;;;;;;0.20;0.20;;;21.80;99.90;;;;;;4965661;28;20500;-75
2023/07/26 00:14:42;;;;;;;0.90;0.30;;;21.80;99.90;;;;;;4967701;28;20042;-76
2023/07/26 00:17:08;;;;;;;0.20;0.20;;;21.80;99.90;;;;;;4967174;28;20053;-75
2023/07/26 00:19:33;;;;;;;2.40;0.22;;;21.80;99.90;;;;;;4985459;28;20548;-75
2023/07/26 00:21:59;;;;;;;0.40;0.40;;;21.70;99.90;;;;;;4985589;28;20113;-75
2023/07/26 00:24:25;;;;;;;1.17;0.30;;;21.70;99.90;;;;;;4965676;28;20030;-75
2023/07/26 00:26:51;;;;;;;0.73;0.38;;;21.70;99.90;;;;;;4963067;28;20030;-75
2023/07/26 00:29:16;;;;;;;0.73;0.43;;;21.70;99.90;;;;;;4982897;28;20357;-75
2023/07/26 00:31:43;;;;;;;0.30;0.30;;;21.70;99.90;;;;;;4980958;28;20052;-75
2023/07/26 00:34:09;;;;;;;0.20;0.10;;;21.70;99.90;;;;;;4985878;28;20472;-75
2023/07/26 00:36:34;;;;;;;0.20;0.20;;;21.60;99.90;;;;;;4968474;28;20056;-75
2023/07/26 00:39:00;;;;;;;0.40;0.20;;;21.60;99.90;;;;;;4945669;28;20367;-75
2023/07/26 00:41:27;;;;;;;0.82;0.30;;;21.60;99.90;;;;;;4944670;28;20042;-75
2023/07/26 00:43:52;;;;;;;0.15;0.15;;;21.60;99.90;;;;;;4962859;28;20038;-75
2023/07/26 00:46:18;;;;;;;1.92;0.30;;;21.50;99.90;;;;;;4940038;28;20122;-76
2023/07/26 00:48:44;;;;;;;0.90;0.35;;;21.50;99.90;;;;;;4962944;28;20033;-75
2023/07/26 00:51:10;;;;;;;1.65;0.20;;;21.50;99.90;;;;;;4943801;28;20027;-75
2023/07/26 00:53:37;;;;;;;0.20;0.20;;;21.50;99.90;;;;;;4956306;28;20362;-75
2023/07/26 00:56:03;;;;;;;1.15;0.35;;;21.50;99.90;;;;;;4946130;28;20066;-75
2023/07/26 00:58:28;;;;;;;0.20;0.20;;;21.50;99.90;;;;;;4947563;28;20082;-75
2023/07/26 01:00:55;;;;;;;0.45;0.45;;;21.50;99.90;;;;;;4961652;28;20042;-76
2023/07/26 01:03:21;;;;;;;1.05;1.05;;;21.50;99.90;;;;;;4942312;28;20027;-76
2023/07/26 01:06:04;;;;;;;1.08;1.02;;;21.60;99.90;;;;;;4943013;28;20394;-76
2023/07/26 01:08:29;;;;;;;3.20;1.30;;;21.60;99.90;;;;;;4941743;28;20093;-75
2023/07/26 01:11:04;;;;;;;1.67;1.50;;;21.50;99.90;;;;;;4959647;28;20485;-75
2023/07/26 01:14:08;;;;;;;3.13;1.85;;;21.60;99.90;;;;;;4962901;28;20042;-76
2023/07/26 01:16:34;;;;;;;3.83;2.42;;;21.60;99.90;;;;;;4961472;28;20039;-76
2023/07/26 01:19:00;;;;;;;4.07;2.30;;;21.50;99.90;;;;;;4965801;28;20090;-76
2023/07/26 01:21:31;;;;;;;1.65;1.55;;;21.50;99.90;;;;;;4961599;28;20031;-75
2023/07/26 01:23:56;;;;;;;1.90;1.67;;;21.50;99.90;;;;;;4945165;28;20027;-75
2023/07/26 01:26:22;;;;;;;3.45;1.40;;;21.50;99.90;;;;;;4943826;28;20085;-75
2023/07/26 01:28:48;;;;;;;1.17;1.17;;;21.40;99.90;;;;;;4941300;28;20047;-76
2023/07/26 01:31:16;;;;;;;1.80;1.10;;;21.40;99.90;;;;;;4959073;28;20054;-76
2023/07/26 01:33:44;;;;;;;3.55;1.33;;;21.40;99.90;;;;;;4945147;28;20032;-76
2023/07/26 01:36:10;;;;;;;0.80;0.80;;;21.40;99.90;;;;;;4958198;28;20058;-76
2023/07/26 01:38:38;;;;;;;2.60;0.85;;;21.30;99.90;;;;;;4963066;28;20070;-76
2023/07/26 01:41:04;;;;;;;2.05;0.80;;;21.30;99.90;;;;;;4983527;28;20046;-75
2023/07/26 01:43:32;;;;;;;0.70;0.70;;;21.20;99.90;;;;;;4961869;28;20389;-76
2023/07/26 01:45:57;;;;;;;0.75;0.63;;;21.10;99.90;;;;;;4962369;28;20030;-76
2023/07/26 01:48:23;;;;;;;0.50;0.47;;;21.10;99.90;;;;;;4978646;28;20034;-76
2023/07/26 01:50:49;;;;;;;0.40;0.40;;;21.10;99.90;;;;;;4963697;28;20037;-75
2023/07/26 01:53:15;;;;;;;0.40;0.40;;;21.10;99.90;;;;;;4963844;28;20077;-76
2023/07/26 01:55:41;;;;;;;0.57;0.57;;;21.00;99.90;;;;;;4968391;28;20034;-76
2023/07/26 01:58:07;;;;;;;1.30;0.70;;;21.00;99.90;;;;;;4979300;28;20029;-76
2023/07/26 02:00:32;;;;;;;1.23;0.90;;;20.80;99.90;;;;;;4965091;28;20113;-75
2023/07/26 02:02:58;;;;;;;1.42;1.25;;;20.80;99.90;;;;;;4967313;28;20525;-76
2023/07/26 02:05:24;;;;;;;1.63;1.52;;;20.70;99.90;;;;;;4965664;28;20035;-76
2023/07/26 02:07:50;;;;;;;1.42;1.33;;;20.80;99.90;;;;;;4977153;28;20029;-76
2023/07/26 02:10:16;;;;;;;5.28;1.27;;;20.70;99.90;;;;;;4961049;28;20405;-76
2023/07/26 02:12:42;;;;;;;2.80;1.52;;;20.70;99.90;;;;;;4980757;28;20029;-75
2023/07/26 02:15:08;;;;;;;1.90;1.50;;;20.70;99.90;;;;;;4964281;28;20262;-75
2023/07/26 02:17:34;;;;;;;2.80;1.40;;;20.70;99.90;;;;;;4961454;28;20370;-76
2023/07/26 02:20:00;;;;;;;5.40;1.80;;;20.60;99.90;;;;;;4984505;28;20210;-76
2023/07/26 02:22:26;;;;;;;3.10;1.83;;;20.60;99.90;;;;;;4976866;28;20046;-76
2023/07/26 02:24:52;;;;;;;2.75;1.90;;;20.40;99.90;;;;;;4980567;28;20069;-76
2023/07/26 02:27:17;;;;;;;2.53;2.33;;;20.50;99.90;;;;;;4960942;28;20480;-76
2023/07/26 02:29:43;;;;;;;2.45;2.17;;;20.50;99.90;;;;;;4965770;28;20030;-76
2023/07/26 02:32:12;;;;;;;2.10;2.00;;;20.50;99.90;;;;;;4959561;28;20084;-76
2023/07/26 02:34:40;;;;;;;4.20;1.80;;;20.40;99.90;;;;;;4982710;28;20106;-76
2023/07/26 02:37:06;;;;;;;5.20;2.55;;;20.30;99.90;;;;;;4965664;28;20639;-76
2023/07/26 02:39:32;;;;;;;2.88;1.77;;;20.30;99.90;;;;;;4982252;28;20117;-76
2023/07/26 02:41:57;;;;;;;1.40;1.30;;;20.20;99.90;;;;;;4979284;28;20575;-76
2023/07/26 02:44:23;;;;;;;1.65;1.25;;;20.10;99.90;;;;;;4963478;28;20034;-76
2023/07/26 02:46:49;;;;;;;1.40;1.30;;;20.10;99.90;;;;;;4976693;28;20023;-76
2023/07/26 02:49:15;;;;;;;1.55;1.45;;;20.00;99.90;;;;;;4980555;28;20179;-75
2023/07/26 02:51:40;;;;;;;2.90;1.25;;;20.00;99.90;;;;;;4963290;28;20046;-75
2023/07/26 02:54:06;;;;;;;1.70;1.42;;;20.00;99.90;;;;;;4966174;28;20384;-76
2023/07/26 02:56:32;;;;;;;0.75;0.75;;;20.00;99.90;;;;;;4967230;28;20034;-75
2023/07/26 02:58:57;;;;;;;0.70;0.70;;;20.00;99.90;;;;;;4966615;28;20487;-76
2023/07/26 03:01:24;;;;;;;0.35;0.32;;;20.10;99.90;;;;;;4963503;28;20034;-75
2023/07/26 03:03:49;;;;;;;1.98;0.70;;;20.30;99.90;;;;;;4950450;28;20037;-75
2023/07/26 03:06:15;;;;;;;1.52;1.40;;;20.20;99.90;;;;;;4976915;28;20023;-76
2023/07/26 03:08:41;;;;;;;2.05;1.70;;;20.20;99.90;;;;;;4984347;28;20102;-76
2023/07/26 03:11:06;;;;;;;3.42;1.35;;;20.20;99.90;;;;;;4980081;28;20338;-75
2023/07/26 03:13:32;;;;;;;2.50;1.80;;;20.00;99.90;;;;;;4966402;28;20034;-76
2023/07/26 03:15:58;;;;;;;1.70;1.60;;;20.00;99.90;;;;;;4985464;28;20544;-75
2023/07/26 03:18:23;;;;;;;2.58;1.70;;;19.90;99.90;;;;;;4983890;28;20108;-75
2023/07/26 03:20:49;;;;;;;1.52;1.42;;;19.90;99.90;;;;;;4986630;28;20058;-75
2023/07/26 03:23:15;;;;;;;2.88;1.88;;;20.00;99.90;;;;;;4981531;28;20049;-76
2023/07/26 03:25:44;;;;;;;1.90;1.80;;;20.00;99.90;;;;;;4966623;28;20042;-75
2023/07/26 03:28:09;;;;;;;3.38;1.55;;;20.00;99.90;;;;;;4980704;28;20065;-76
2023/07/26 03:30:35;;;;;;;1.92;1.75;;;20.00;99.90;;;;;;4982659;28;20049;-76
2023/07/26 03:33:01;;;;;;;2.38;1.70;;;20.00;99.90;;;;;;4983550;28;20027;-76
2023/07/26 03:35:26;;;;;;;1.80;1.50;;;19.90;99.90;;;;;;4978200;28;20397;-76
2023/07/26 03:37:52;;;;;;;2.20;1.60;;;19.90;99.90;;;;;;4965256;28;20106;-76
2023/07/26 03:40:19;;;;;;;8.23;1.85;;;19.80;99.90;;;;;;4967076;28;20022;-75
2023/07/26 03:42:48;;;;;;;4.40;1.95;;;19.70;99.90;;;;;;4961901;28;20027;-76
2023/07/26 03:45:13;;;;;;;2.05;1.88;;;19.60;99.90;;;;;;4946936;28;20097;-75
2023/07/26 03:47:39;;;;;;;3.95;1.45;;;19.60;99.90;;;;;;4960663;28;20058;-76
2023/07/26 03:50:05;;;;;;;1.70;1.58;;;19.60;99.90;;;;;;4946907;28;20023;-75
2023/07/26 03:52:31;;;;;;;1.63;1.52;;;19.60;99.90;;;;;;4946347;28;20035;-75
2023/07/26 03:54:57;;;;;;;1.55;1.42;;;19.50;99.90;;;;;;4961368;28;20034;-76
2023/07/26 03:57:22;;;;;;;1.73;1.63;;;19.50;99.90;;;;;;4964415;28;20460;-75
2023/07/26 03:59:48;;;;;;;2.50;1.45;;;19.60;99.90;;;;;;4966723;28;20405;-75
2023/07/26 04:02:14;;;;;;;1.77;1.50;;;19.50;99.90;;;;;;4962463;28;20474;-76
2023/07/26 04:04:39;;;;;;;1.30;1.25;;;19.50;99.90;;;;;;4965904;28;20110;-76
2023/07/26 04:07:05;;;;;;;1.70;1.60;;;19.50;99.90;;;;;;4962451;28;20031;-76
2023/07/26 04:09:32;;;;;;;5.20;1.48;;;19.40;99.90;;;;;;4964806;28;20030;-75
2023/07/26 04:11:58;;;;;;;2.50;1.45;;;19.40;99.90;;;;;;4947132;29;20027;-76
2023/07/26 04:14:23;;;;;;;3.63;1.60;;;19.30;99.90;;;;;;4964504;28;20162;-75
2023/07/26 04:16:50;;;;;;;1.55;1.45;;;19.20;99.90;;;;;;4962673;28;20365;-76
2023/07/26 04:19:16;;;;;;;4.95;1.85;;;19.20;99.90;;;;;;4963624;28;20492;-76
2023/07/26 04:21:42;;;;;;;1.23;1.13;;;19.20;99.90;;;;;;4963916;28;20351;-76
2023/07/26 04:24:07;;;;;;;2.72;1.80;;;19.20;99.90;;;;;;4963278;28;20031;-76
2023/07/26 04:26:33;;;;;;;2.55;1.23;;;19.20;99.90;;;;;;4965799;28;20031;-76
2023/07/26 04:28:59;;;;;;;2.30;1.60;;;19.20;99.90;;;;;;4963554;28;20260;-75
2023/07/26 04:31:25;;;;;;;1.70;1.60;;;19.10;99.90;;;;;;4948263;28;20449;-75
2023/07/26 04:33:51;;;;;;;2.90;1.20;;;19.10;99.90;;;;;;4966604;28;20553;-76
2023/07/26 04:36:16;;;;;;;2.20;1.20;;;19.10;99.90;;;;;;4956979;28;20193;-75
2023/07/26 04:38:42;;;;;;;2.65;1.48;;;19.10;99.90;;;;;;4981465;28;20033;-75
2023/07/26 04:41:08;;;;;;;2.80;1.35;;;19.10;99.90;;;;;;4982672;28;20038;-76
2023/07/26 04:43:34;;;;;;;2.85;1.33;;;19.10;99.90;;;;;;4981117;28;20027;-75
2023/07/26 04:46:00;;;;;;;2.45;1.33;;;19.10;99.90;;;;;;4982582;28;20061;-75
2023/07/26 04:48:26;;;;;;;1.20;1.10;;;19.10;99.90;;;;;;4980274;28;20469;-76
2023/07/26 04:50:51;;;;;;;1.45;1.25;;;19.10;99.90;;;;;;4966260;28;20142;-76
2023/07/26 04:53:17;;;;;;;4.22;1.42;;;19.10;99.90;;;;;;4964764;28;20078;-76
2023/07/26 04:55:50;;;;;;;2.55;1.10;;;19.20;99.90;;;;;;4961818;28;20408;-75
2023/07/26 04:58:16;;;;;;;2.25;1.63;;;19.10;99.90;;;;;;4982781;28;20118;-76
2023/07/26 05:00:42;;;;;;;2.55;1.60;;;19.20;99.90;;;;;;4964039;28;20090;-76
2023/07/26 05:03:09;;;;;;;2.33;1.27;;;19.20;99.90;;;;;;4969238;28;20510;-75
2023/07/26 05:05:36;;;;;;;2.75;1.60;;;19.30;99.90;;;;;;4983646;28;20019;-76
2023/07/26 05:08:02;;;;;;;1.63;1.52;;;19.40;99.90;;;;;;4961787;28;20026;-76
2023/07/26 05:10:29;;;;;;;4.50;1.73;;;19.40;99.90;;;;;;4988552;28;20096;-76
2023/07/26 05:12:56;;;;;;;1.75;1.42;;;19.40;99.90;;;;;;4973987;28;20362;-76
2023/07/26 05:15:22;;;;;;;5.90;2.05;;;19.50;99.90;;;;;;4987549;28;20031;-75
2023/07/26 05:17:47;;;;;;;2.38;2.17;;;19.50;99.90;;;;;;4985673;28;20022;-76
2023/07/26 05:20:13;;;;;;;4.43;1.88;;;19.60;99.90;;;;;;4990639;28;20026;-76
2023/07/26 05:22:39;;;;;;;3.05;1.90;;;19.70;99.90;;;;;;4988128;28;20034;-76
2023/07/26 05:25:05;;;;;;;1.80;1.70;;;19.80;99.90;;;;;;4972416;28;20026;-76
2023/07/26 05:27:31;;;;;;;4.47;1.88;;;19.80;99.90;;;;;;4974048;28;20049;-76
2023/07/26 05:29:57;;;;;;;3.63;2.05;;;19.90;99.90;;;;;;4970538;28;20064;-76
2023/07/26 05:32:26;;;;;;;2.92;2.28;;;19.90;99.90;;;;;;4967788;28;20035;-75
2023/07/26 05:34:55;;;;;;;5.35;2.75;;;20.10;99.90;;;;;;4985981;28;20105;-76
2023/07/26 05:37:21;;;;;;;4.45;3.30;;;20.20;99.90;;;;;;4982667;28;20137;-76
2023/07/26 05:39:48;;;;;;;6.15;4.53;;;20.30;99.90;;;;;;4984292;28;20514;-75
2023/07/26 05:42:14;;;;;;;4.80;4.38;;;20.30;99.90;;;;;;4965129;28;20058;-76
2023/07/26 05:44:40;;;;;;;7.28;5.15;;;20.30;99.90;;;;;;4967207;28;20051;-76
2023/07/26 05:47:06;;;;;;;8.25;4.75;;;20.40;99.90;;;;;;4964225;28;20030;-76
2023/07/26 05:49:31;;;;;;;8.40;5.53;;;20.40;99.90;;;;;;4981068;28;20030;-75
2023/07/26 05:51:59;;;;;;;8.18;5.13;;;20.40;99.90;;;;;;4973817;28;20034;-76
2023/07/26 05:54:25;;;;;;;9.32;5.32;;;20.50;99.90;;;;;;4963852;28;20026;-76
2023/07/26 05:56:51;;;;;;;5.50;4.97;;;20.60;99.90;;;;;;4960213;28;20034;-76
2023/07/26 05:59:17;;;;;;;10.50;5.72;;;20.60;99.90;;;;;;4964644;28;20121;-76
2023/07/26 06:01:42;;;;;;;5.63;4.35;;;20.60;99.90;;;;;;4968181;28;20137;-76
2023/07/26 06:04:08;;;;;;;12.30;4.70;;;20.70;99.90;;;;;;4961556;28;20030;-76
2023/07/26 06:06:34;;;;;;;8.23;5.43;;;20.70;99.90;;;;;;4958472;28;20026;-76
2023/07/26 06:09:00;;;;;;;9.13;5.07;;;20.80;99.90;;;;;;4961678;28;20548;-76
2023/07/26 06:11:25;;;;;;;4.75;4.35;;;20.90;99.90;;;;;;4958378;28;20031;-76
2023/07/26 06:13:51;;;;;;;5.38;4.85;;;20.90;99.90;;;;;;4962718;28;20100;-76
2023/07/26 06:16:17;;;;;;;6.30;4.88;;;20.90;99.90;;;;;;4964799;28;20054;-76
2023/07/26 06:18:42;;;;;;;7.22;5.50;;;20.90;99.90;;;;;;4983917;28;20023;-76
2023/07/26 06:21:08;;;;;;;6.95;5.53;;;21.10;99.90;;;;;;4961904;28;20183;-75
2023/07/26 06:23:34;;;;;;;8.95;5.50;;;21.00;99.90;;;;;;4964324;28;20031;-76
2023/07/26 06:26:00;;;;;;;6.75;5.53;;;21.00;99.90;;;;;;4964835;28;20390;-76
2023/07/26 06:28:26;;;;;;;6.68;4.18;;;21.00;99.90;;;;;;4966840;28;20030;-76
2023/07/26 06:30:51;;;;;;;6.82;5.15;;;21.10;99.90;;;;;;4972422;28;20552;-76
2023/07/26 06:33:17;;;;;;;6.07;4.68;;;21.10;99.90;;;;;;4983349;28;20028;-76
2023/07/26 06:35:43;;;;;;;5.38;4.63;;;21.10;99.90;;;;;;4964424;28;20078;-76
2023/07/26 06:38:09;;;;;;;3.60;3.30;;;21.20;99.90;;;;;;4980324;28;20040;-76
2023/07/26 06:40:35;;;;;;;5.38;4.20;;;21.20;99.90;;;;;;4966783;28;20042;-76
2023/07/26 06:43:00;;;;;;;4.10;3.63;;;21.20;99.90;;;;;;4965620;28;20027;-75
2023/07/26 06:45:26;;;;;;;5.32;3.67;;;21.30;99.90;;;;;;4969058;28;20027;-76
2023/07/26 06:47:54;;;;;;;3.13;2.80;;;21.40;99.90;;;;;;4970619;28;20029;-75
2023/07/26 06:50:19;;;;;;;3.63;2.38;;;21.40;99.90;;;;;;4966198;28;20027;-76
2023/07/26 06:52:45;;;;;;;2.63;1.85;;;21.50;99.90;;;;;;4970467;28;20036;-76
2023/07/26 06:55:11;;;;;;;2.45;2.13;;;21.50;99.90;;;;;;4965772;28;20489;-75
2023/07/26 06:57:37;;;;;;;1.95;1.75;;;21.60;99.90;;;;;;4967101;28;20111;-76
2023/07/26 07:00:06;;;;;;;2.20;2.00;;;21.70;99.90;;;;;;4985090;28;20058;-76
2023/07/26 07:02:32;;;;;;;3.25;1.58;;;21.80;99.90;;;;;;4983239;28;20050;-76
2023/07/26 07:04:57;;;;;;;2.72;1.40;;;21.90;99.90;;;;;;4970435;28;20418;-76
2023/07/26 07:07:23;;;;;;;1.85;1.42;;;21.90;99.90;;;;;;4965285;28;20389;-76
2023/07/26 07:09:49;;;;;;;1.05;0.95;;;22.00;99.90;;;;;;4968822;28;20035;-76
2023/07/26 07:12:16;;;;;;;1.30;0.90;;;22.00;99.90;;;;;;4978737;28;20026;-76
2023/07/26 07:14:42;;;;;;;1.25;0.88;;;22.00;99.90;;;;;;4969988;28;20038;-75
2023/07/26 07:17:08;;;;;;;1.08;1.08;;;22.00;99.90;;;;;;4966382;28;20022;-75
2023/07/26 07:19:34;;;;;;;1.08;1.00;;;22.00;99.90;;;;;;4985236;28;20176;-75
2023/07/26 07:22:00;;;;;;;2.13;0.70;;;22.00;99.90;;;;;;4983051;28;20022;-75
2023/07/26 07:24:25;;;;;;;0.77;0.60;;;22.00;99.90;;;;;;4969736;28;20027;-76
2023/07/26 07:26:51;;;;;;;1.20;1.13;;;22.10;99.90;;;;;;4971626;28;20023;-75
2023/07/26 07:29:17;;;;;;;2.17;1.00;;;22.10;99.90;;;;;;4970747;28;20550;-75
2023/07/26 07:31:43;;;;;;;1.05;1.00;;;22.20;99.90;;;;;;4980191;28;20029;-76
2023/07/26 07:34:09;;;;;;;2.60;1.13;;;22.20;99.90;;;;;;4983636;28;20023;-75
2023/07/26 07:36:34;;;;;;;0.90;0.90;;;22.30;99.90;;;;;;4971646;28;20074;-76
2023/07/26 07:39:00;;;;;;;1.08;0.80;;;22.30;99.90;;;;;;4970684;28;20475;-75
2023/07/26 07:41:26;;;;;;;1.13;1.13;;;22.40;99.90;;;;;;4981754;28;20448;-76
2023/07/26 07:43:52;;;;;;;3.60;0.95;;;22.40;99.90;;;;;;4980605;28;20026;-75
2023/07/26 07:46:17;;;;;;;1.67;1.08;;;22.40;99.90;;;;;;4983934;28;20031;-76
2023/07/26 07:48:43;;;;;;;1.17;1.10;;;22.50;99.90;;;;;;4978162;28;20536;-75
2023/07/26 07:51:09;;;;;;;1.00;0.90;;;22.50;99.90;;;;;;4977285;28;20030;-75
2023/07/26 07:53:34;;;;;;;1.88;0.93;;;22.50;99.90;;;;;;4962968;28;20063;-76
2023/07/26 07:56:00;;;;;;;1.15;1.00;;;22.60;99.90;;;;;;4980865;28;20031;-76
2023/07/26 07:58:26;;;;;;;1.33;0.93;;;22.60;99.90;;;;;;4974518;28;20023;-76
2023/07/26 08:00:58;;;;;;;1.27;1.17;;;22.60;99.90;;;;;;4976613;28;20093;-76
2023/07/26 08:03:23;;;;;;;1.30;1.20;;;22.70;99.90;;;;;;4991843;28;20023;-76
2023/07/26 08:05:50;;;;;;;1.30;0.80;;;22.70;99.90;;;;;;4967542;28;20030;-76
2023/07/26 08:08:16;;;;;;;1.50;1.40;;;22.70;99.90;;;;;;4964813;28;20477;-77
2023/07/26 08:10:42;;;;;;;2.00;1.90;;;22.80;99.90;;;;;;4974292;28;20030;-78
2023/07/26 08:13:08;;;;;;;1.02;0.93;;;22.80;99.90;;;;;;4965192;28;20498;-75
2023/07/26 08:15:37;;;;;;;1.08;1.00;;;22.80;99.90;;;;;;4967709;28;20037;-75
2023/07/26 08:18:04;;;;;;;0.93;0.70;;;22.90;99.90;;;;;;4979801;28;20026;-76
2023/07/26 08:20:36;;;;;;;1.85;1.00;;;23.00;99.90;;;;;;4965828;28;20042;-75
2023/07/26 08:23:04;;;;;;;1.23;0.85;;;23.00;99.90;;;;;;4982105;28;20041;-75
2023/07/26 08:25:29;;;;;;;5.35;1.00;;;23.10;99.90;;;;;;4966866;28;20034;-75
2023/07/26 08:27:56;;;;;;;0.82;0.82;;;23.10;99.90;;;;;;4978757;28;20026;-75
2023/07/26 08:30:21;;;;;;;3.72;1.00;;;23.20;99.90;;;;;;4984428;28;20037;-75
2023/07/26 08:32:47;;;;;;;0.95;0.70;;;23.20;99.90;;;;;;4981850;28;20022;-75
2023/07/26 08:35:13;;;;;;;1.25;0.93;;;23.20;99.90;;;;;;4980701;28;20031;-76
2023/07/26 08:37:39;;;;;;;1.60;1.10;;;23.30;99.90;;;;;;4974519;28;20026;-75
2023/07/26 08:40:05;;;;;;;1.65;0.40;;;23.30;99.90;;;;;;4965724;28;20027;-76
2023/07/26 08:42:31;;;;;;;1.00;0.63;;;23.30;99.90;;;;;;4963681;28;20035;-75
2023/07/26 08:44:59;;;;;;;0.60;0.60;;;23.40;99.90;;;;;;4969132;28;20077;-75
2023/07/26 08:47:29;;;;;;;2.00;0.80;;;23.40;99.90;;;;;;4979689;28;20018;-75
2023/07/26 08:49:56;;;;;;;0.50;0.50;;;23.50;99.90;;;;;;4982912;28;20560;-75
2023/07/26 08:52:22;;;;;;;0.50;0.50;;;23.50;99.30;;;;;;4977170;28;20113;-75
2023/07/26 08:54:48;;;;;;;0.52;0.52;;;23.50;99.90;;;;;;4983442;28;20121;-75
2023/07/26 08:57:16;;;;;;;1.13;0.50;;;23.50;99.90;;;;;;4975144;28;20465;-75
2023/07/26 08:59:42;;;;;;;0.52;0.52;;;23.50;99.90;;;;;;4965991;28;20109;-75
2023/07/26 09:02:10;;;;;;;0.73;0.50;;;23.60;99.90;;;;;;4981133;28;20495;-75
2023/07/26 09:04:36;;;;;;;1.48;0.65;;;23.60;99.90;;;;;;4983402;28;20034;-76
2023/07/26 09:07:03;;;;;;;1.05;0.63;;;23.60;99.90;;;;;;4981418;28;20027;-75
2023/07/26 09:09:33;;;;;;;2.15;0.60;;;23.70;99.90;;;;;;4982751;28;20396;-75
2023/07/26 09:12:00;;;;;;;0.55;0.52;;;23.70;99.90;;;;;;4979175;28;20026;-75
2023/07/26 09:14:31;;;;;;;0.52;0.52;;;23.80;99.80;;;;;;4982339;28;20019;-76
2023/07/26 09:17:01;;;;;;;0.67;0.67;;;23.90;99.90;;;;;;4976235;28;20026;-75
2023/07/26 09:19:35;;;;;;;0.50;0.50;;;23.90;99.90;;;;;;4982904;28;20112;-75
2023/07/26 09:22:03;;;;;;;4.03;0.60;;;23.90;99.90;;;;;;4983401;28;20143;-75
2023/07/26 09:24:34;;;;;;;0.60;0.60;;;23.90;99.90;;;;;;4983318;28;20033;-75
2023/07/26 09:27:08;;;;;;;0.73;0.73;;;23.90;99.90;;;;;;4966494;28;20030;-75
2023/07/26 09:29:35;;;;;;;1.08;0.47;;;23.90;99.90;;;;;;4982605;28;20088;-75
2023/07/26 09:32:04;;;;;;;2.08;0.70;;;23.90;99.40;;;;;;4979131;28;20023;-75
2023/07/26 09:34:33;;;;;;;1.13;0.70;;;24.10;99.90;;;;;;4982682;28;20201;-75
2023/07/26 09:37:02;;;;;;;0.95;0.47;;;24.20;99.90;;;;;;4975226;28;20078;-75
2023/07/26 09:39:33;;;;;;;2.22;0.55;;;24.30;99.50;;;;;;4982531;28;20751;-75
2023/07/26 09:42:10;;;;;;;1.20;0.57;;;24.30;99.00;;;;;;4963532;28;20062;-75
2023/07/26 09:44:37;;;;;;;0.57;0.57;;;24.40;99.00;;;;;;4983229;28;20026;-75
2023/07/26 09:47:03;;;;;;;1.48;0.70;;;24.50;96.20;;;;;;4985886;28;20030;-76
2023/07/26 09:49:32;;;;;;;2.85;0.50;;;24.50;97.90;;;;;;4979554;28;20129;-75
2023/07/26 09:51:59;;;;;;;1.42;0.57;;;24.60;98.20;;;;;;4978831;28;20111;-75
2023/07/26 09:54:33;;;;;;;2.75;0.85;;;24.70;97.10;;;;;;4981452;28;20109;-75
2023/07/26 09:57:00;;;;;;;1.40;0.80;;;24.60;98.50;;;;;;4975096;28;20047;-76
2023/07/26 09:59:28;;;;;;;4.63;0.70;;;24.70;99.90;;;;;;4966739;28;20389;-76
2023/07/26 10:01:55;;;;;;;3.28;0.80;;;24.70;99.90;;;;;;4962450;28;20037;-75
2023/07/26 10:04:49;;;;;;;1.42;0.82;;;24.70;99.90;;;;;;4980065;28;20384;-75
2023/07/26 10:07:15;;;;;;;2.50;0.85;;;24.80;99.90;;;;;;4962698;28;20015;-75
2023/07/26 10:09:46;;;;;;;2.85;0.40;;;24.90;99.90;;;;;;4981785;28;20472;-76
2023/07/26 10:12:12;;;;;;;0.60;0.60;;;24.80;99.90;;;;;;4980329;28;20033;-76
2023/07/26 10:14:39;;;;;;;0.80;0.63;;;24.80;99.90;;;;;;4981835;28;20034;-75
2023/07/26 10:17:06;;;;;;;1.90;0.65;;;24.80;99.90;;;;;;4973977;28;20118;-76
2023/07/26 10:19:32;;;;;;;1.77;0.57;;;24.90;99.90;;;;;;4972684;28;20760;-76
2023/07/26 10:21:58;;;;;;;0.90;0.80;;;24.90;99.90;;;;;;4967063;28;20026;-75
2023/07/26 10:24:25;;;;;;;3.47;1.00;;;25.00;99.90;;;;;;4983403;28;20294;-75
2023/07/26 10:26:52;;;;;;;0.60;0.60;;;25.00;99.80;;;;;;4981889;28;20022;-75
2023/07/26 10:29:19;;;;;;;0.60;0.60;;;25.20;96.50;;;;;;4963528;28;20027;-75
2023/07/26 10:31:46;;;;;;;0.60;0.57;;;25.30;93.10;;;;;;4982086;28;20019;-76
2023/07/26 10:34:20;;;;;;;0.63;0.40;;;25.30;93.50;;;;;;4980401;28;20030;-75
2023/07/26 10:36:46;;;;;;;0.70;0.60;;;25.50;95.60;;;;;;4976060;28;20051;-75
2023/07/26 10:39:12;;;;;;;0.85;0.50;;;25.70;91.80;;;;;;4980402;28;20069;-76
2023/07/26 10:41:47;;;;;;;2.28;0.60;;;25.70;94.50;;;;;;4975423;28;20144;-75
2023/07/26 10:44:13;;;;;;;0.82;0.40;;;25.80;93.30;;;;;;4980377;28;20550;-75
2023/07/26 10:47:05;;;;;;;2.50;0.73;;;25.80;92.80;;;;;;4980448;28;20112;-75
2023/07/26 10:49:36;;;;;;;0.63;0.40;;;26.00;94.70;;;;;;4977900;28;20039;-75
2023/07/26 10:52:08;;;;;;;0.47;0.45;;;26.10;90.20;;;;;;4981678;28;20022;-76
2023/07/26 10:54:48;;;;;;;0.80;0.40;;;26.00;92.60;;;;;;4982234;28;20037;-76
2023/07/26 10:57:31;;;;;;;1.65;0.60;;;26.10;96.80;;;;;;4961896;28;20547;-76
2023/07/26 11:00:00;;;;;;;1.92;0.73;;;26.30;94.30;;;;;;4969319;28;20027;-76
2023/07/26 11:02:49;;;;;;;1.00;0.70;;;26.40;92.10;;;;;;4974915;28;20043;-76
2023/07/26 11:05:22;;;;;;;0.90;0.50;;;26.70;88.50;;;;;;4978794;28;20023;-75
2023/07/26 11:08:01;;;;;;;0.43;0.43;;;26.60;81.30;;;;;;4982962;28;20097;-75
2023/07/26 11:10:36;;;;;;;0.50;0.50;;;26.60;88.30;;;;;;4982027;28;20023;-76
2023/07/26 11:13:15;;;;;;;0.85;0.30;;;26.80;90.10;;;;;;4970426;28;20031;-75
2023/07/26 11:15:49;;;;;;;0.47;0.30;;;26.80;81.60;;;;;;4987447;28;20105;-75
2023/07/26 11:18:16;;;;;;;0.30;0.20;;;26.80;76.30;;;;;;4977113;28;20027;-75
2023/07/26 11:20:51;;;;;;;0.52;0.40;;;26.80;72.40;;;;;;4960338;28;20397;-75
2023/07/26 11:23:20;;;;;;;0.40;0.20;;;26.90;74.00;;;;;;4980170;28;20062;-75
2023/07/26 11:25:47;;;;;;;0.30;0.30;;;27.00;73.60;;;;;;4978930;28;20060;-75
2023/07/26 11:28:13;;;;;;;0.20;0.20;;;27.00;71.50;;;;;;4984672;28;20030;-76
2023/07/26 11:30:41;;;;;;;0.95;0.20;;;27.10;77.90;;;;;;4985086;28;20026;-75
2023/07/26 11:33:08;;;;;;;0.20;0.20;;;27.10;74.20;;;;;;4985814;28;20504;-75
2023/07/26 11:35:44;;;;;;;0.75;0.40;;;27.20;70.60;;;;;;4984306;28;20481;-75
2023/07/26 11:38:16;;;;;;;0.20;0.20;;;27.20;72.90;;;;;;4985017;28;20034;-75
2023/07/26 11:40:43;;;;;;;0.80;0.20;;;27.20;71.60;;;;;;4964210;28;20082;-75
2023/07/26 11:43:10;;;;;;;1.10;0.20;;;27.20;71.10;;;;;;4984237;28;20036;-75
2023/07/26 11:45:43;;;;;;;1.52;0.40;;;27.20;72.70;;;;;;4971382;28;20019;-75
2023/07/26 11:48:10;;;;;;;4.05;0.63;;;27.40;76.10;;;;;;4966964;28;20042;-76
2023/07/26 11:50:39;;;;;;;0.20;0.20;;;27.40;78.30;;;;;;4986358;28;20057;-75
2023/07/26 11:53:11;;;;;;;0.63;0.30;;;27.50;80.10;;;;;;4980941;28;20026;-75
2023/07/26 11:55:41;;;;;;;0.52;0.30;;;27.60;77.90;;;;;;4983008;28;20044;-75
2023/07/26 11:58:11;;;;;;;2.17;0.20;;;27.70;74.20;;;;;;4979965;28;20014;-75
2023/07/26 12:00:46;;;;;;;0.22;0.22;;;27.80;80.60;;;;;;4982362;28;20481;-75
2023/07/26 12:03:12;;;;;;;0.38;0.20;;;27.90;76.90;;;;;;4983170;28;20122;-75
2023/07/26 12:05:45;;;;;;;0.30;0.20;;;28.00;75.90;;;;;;4970189;28;20061;-76
2023/07/26 12:08:11;;;;;;;1.02;0.60;;;27.90;78.80;;;;;;4984064;28;20034;-75
2023/07/26 12:10:41;;;;;;;3.30;0.30;;;27.90;73.40;;;;;;4986100;28;20038;-75
2023/07/26 12:13:18;;;;;;;2.88;0.30;;;27.90;70.60;;;;;;4980963;28;20026;-75
2023/07/26 12:15:50;;;;;;;0.73;0.30;;;27.90;72.90;;;;;;4965641;28;20032;-75
2023/07/26 12:18:17;;;;;;;0.47;0.32;;;28.00;75.00;;;;;;4980078;28;20428;-76
2023/07/26 12:21:09;;;;;;;0.28;0.28;;;28.10;70.30;;;;;;4982140;28;20146;-75
2023/07/26 12:23:51;;;;;;;0.43;0.30;;;28.20;69.00;;;;;;4978848;28;20039;-75
2023/07/26 12:26:18;;;;;;;;;;;28.20;68.40;;;;;;4982189;28;20027;-75
2023/07/26 12:28:44;;;;;;;1.83;0.30;;;28.20;69.70;;;;;;4982524;28;19994;-75
2023/07/26 12:31:19;;;;;;;0.35;0.35;;;28.20;65.70;;;;;;4967106;28;20113;-75
2023/07/26 12:34:00;;;;;;;0.32;0.32;;;28.30;65.70;;;;;;4988123;28;20015;-75
2023/07/26 12:36:29;;;;;;;1.25;0.40;;;28.20;61.10;;;;;;4979790;28;20546;-75
2023/07/26 12:38:56;;;;;;;1.92;0.30;;;28.30;60.10;;;;;;4980614;28;20022;-75
2023/07/26 12:41:25;;;;;;;0.40;0.40;;;28.30;60.30;;;;;;4974743;28;20034;-75
2023/07/26 12:43:52;;;;;;;0.68;0.32;;;28.30;59.90;;;;;;4981667;28;20027;-75
2023/07/26 12:46:18;;;;;;;0.82;0.40;;;28.30;59.30;;;;;;4981902;28;20026;-75
2023/07/26 12:48:44;;;;;;;0.65;0.45;;;28.40;59.90;;;;;;4980653;28;20042;-75